Leatherwood, Kentucky
Current Conditions -  °F | °C
As of 8:15 PM on Monday 26 Jan 2015 (Local Time) from KI35 Reporting Station
Overcast Overcast  
Wind Chill: 24°   Ceiling: 1200
Heat Index: 30°   Visibility: 10mi
Dew Point: 25°   Wind: 6mph
Humidity: 80%   Direction: 270°W
Pressure: 29.91"   Gusts: NA
Location:  37.1177°N, 83.0448°W
Report Text: KI35 270115Z AUTO 27005KT 10SM OVC012 M01/M04 A2991 RMK AO1
Loading
Personal Weather Stations






























Interactive Weather Map New forecast layout! Learn more

10-Day Weather Forecast

Advertisements
Track Severe Weather on mobile